sensor_id;sensor_type;location;lat;lon;timestamp;P1;durP1;ratioP1;P2;durP2;ratioP2
18102;SDS011;9178;51.120;6.192;2023-05-02T00:00:59;31.57;;;23.80;;
18102;SDS011;9178;51.120;6.192;2023-05-02T00:03:29;29.93;;;22.20;;
18102;SDS011;9178;51.120;6.192;2023-05-02T00:05:56;35.20;;;24.37;;
18102;SDS011;9178;51.120;6.192;2023-05-02T00:08:22;27.80;;;21.57;;
18102;SDS011;9178;51.120;6.192;2023-05-02T00:10:51;31.00;;;23.20;;
18102;SDS011;9178;51.120;6.192;2023-05-02T00:13:17;28.87;;;20.97;;
18102;SDS011;9178;51.120;6.192;2023-05-02T00:15:44;29.27;;;20.97;;
18102;SDS011;9178;51.120;6.192;2023-05-02T00:18:11;29.63;;;20.90;;
18102;SDS011;9178;51.120;6.192;2023-05-02T00:20:38;36.43;;;24.23;;
18102;SDS011;9178;51.120;6.192;2023-05-02T00:23:05;38.63;;;24.20;;
18102;SDS011;9178;51.120;6.192;2023-05-02T00:25:32;39.80;;;26.13;;
18102;SDS011;9178;51.120;6.192;2023-05-02T00:28:01;41.17;;;27.27;;
18102;SDS011;9178;51.120;6.192;2023-05-02T00:30:28;49.43;;;31.97;;
18102;SDS011;9178;51.120;6.192;2023-05-02T00:32:54;56.73;;;32.83;;
18102;SDS011;9178;51.120;6.192;2023-05-02T00:35:22;52.70;;;32.90;;
18102;SDS011;9178;51.120;6.192;2023-05-02T00:37:49;55.47;;;33.80;;
18102;SDS011;9178;51.120;6.192;2023-05-02T00:40:15;60.30;;;34.33;;
18102;SDS011;9178;51.120;6.192;2023-05-02T00:42:42;53.90;;;31.27;;
18102;SDS011;9178;51.120;6.192;2023-05-02T00:45:10;50.60;;;31.00;;
18102;SDS011;9178;51.120;6.192;2023-05-02T00:47:37;53.10;;;30.90;;
18102;SDS011;9178;51.120;6.192;2023-05-02T00:50:05;62.57;;;34.63;;
18102;SDS011;9178;51.120;6.192;2023-05-02T00:52:32;57.17;;;32.63;;
18102;SDS011;9178;51.120;6.192;2023-05-02T00:55:00;57.93;;;33.33;;
18102;SDS011;9178;51.120;6.192;2023-05-02T00:57:27;53.77;;;31.63;;
18102;SDS011;9178;51.120;6.192;2023-05-02T00:59:54;66.73;;;33.87;;
18102;SDS011;9178;51.120;6.192;2023-05-02T01:02:25;58.97;;;33.73;;
18102;SDS011;9178;51.120;6.192;2023-05-02T01:04:59;56.67;;;31.37;;
18102;SDS011;9178;51.120;6.192;2023-05-02T01:07:40;57.43;;;31.57;;
18102;SDS011;9178;51.120;6.192;2023-05-02T01:10:18;60.60;;;33.10;;
18102;SDS011;9178;51.120;6.192;2023-05-02T01:12:54;60.27;;;33.37;;
18102;SDS011;9178;51.120;6.192;2023-05-02T01:15:25;59.27;;;31.47;;
18102;SDS011;9178;51.120;6.192;2023-05-02T01:17:53;58.87;;;31.93;;
18102;SDS011;9178;51.120;6.192;2023-05-02T01:20:22;57.37;;;32.53;;
18102;SDS011;9178;51.120;6.192;2023-05-02T01:22:53;64.53;;;32.93;;
18102;SDS011;9178;51.120;6.192;2023-05-02T01:25:25;56.27;;;31.63;;
18102;SDS011;9178;51.120;6.192;2023-05-02T01:27:59;57.97;;;31.37;;
18102;SDS011;9178;51.120;6.192;2023-05-02T01:30:37;59.37;;;31.47;;
18102;SDS011;9178;51.120;6.192;2023-05-02T01:33:07;55.77;;;30.07;;
18102;SDS011;9178;51.120;6.192;2023-05-02T01:35:36;51.47;;;29.93;;
18102;SDS011;9178;51.120;6.192;2023-05-02T01:38:04;59.47;;;30.63;;
18102;SDS011;9178;51.120;6.192;2023-05-02T01:40:31;55.43;;;30.67;;
18102;SDS011;9178;51.120;6.192;2023-05-02T01:43:00;65.50;;;31.30;;
18102;SDS011;9178;51.120;6.192;2023-05-02T01:45:30;57.17;;;29.83;;
18102;SDS011;9178;51.120;6.192;2023-05-02T01:48:01;62.50;;;31.20;;
18102;SDS011;9178;51.120;6.192;2023-05-02T01:50:30;76.47;;;33.03;;
18102;SDS011;9178;51.120;6.192;2023-05-02T01:52:57;65.90;;;32.70;;
18102;SDS011;9178;51.120;6.192;2023-05-02T01:55:25;72.73;;;33.07;;
18102;SDS011;9178;51.120;6.192;2023-05-02T01:57:54;66.63;;;34.00;;
18102;SDS011;9178;51.120;6.192;2023-05-02T02:00:22;64.70;;;31.73;;
18102;SDS011;9178;51.120;6.192;2023-05-02T02:02:50;70.70;;;33.60;;
18102;SDS011;9178;51.120;6.192;2023-05-02T02:05:21;70.93;;;33.40;;
18102;SDS011;9178;51.120;6.192;2023-05-02T02:07:50;58.60;;;31.30;;
18102;SDS011;9178;51.120;6.192;2023-05-02T02:10:17;91.13;;;36.20;;
18102;SDS011;9178;51.120;6.192;2023-05-02T02:12:47;59.83;;;33.13;;
18102;SDS011;9178;51.120;6.192;2023-05-02T02:15:20;60.93;;;33.33;;
18102;SDS011;9178;51.120;6.192;2023-05-02T02:17:54;62.83;;;34.17;;
18102;SDS011;9178;51.120;6.192;2023-05-02T02:20:26;77.43;;;35.67;;
18102;SDS011;9178;51.120;6.192;2023-05-02T02:22:54;77.50;;;35.47;;
18102;SDS011;9178;51.120;6.192;2023-05-02T02:25:22;60.03;;;32.83;;
18102;SDS011;9178;51.120;6.192;2023-05-02T02:27:52;59.80;;;32.67;;
18102;SDS011;9178;51.120;6.192;2023-05-02T02:30:18;88.67;;;36.70;;
18102;SDS011;9178;51.120;6.192;2023-05-02T02:32:45;81.23;;;36.40;;
18102;SDS011;9178;51.120;6.192;2023-05-02T02:35:12;68.73;;;34.23;;
18102;SDS011;9178;51.120;6.192;2023-05-02T02:37:43;83.77;;;37.33;;
18102;SDS011;9178;51.120;6.192;2023-05-02T02:40:15;91.20;;;39.23;;
18102;SDS011;9178;51.120;6.192;2023-05-02T02:42:49;66.80;;;33.80;;
18102;SDS011;9178;51.120;6.192;2023-05-02T02:45:26;67.97;;;36.17;;
18102;SDS011;9178;51.120;6.192;2023-05-02T02:48:07;74.63;;;37.10;;
18102;SDS011;9178;51.120;6.192;2023-05-02T02:50:45;69.50;;;34.93;;
18102;SDS011;9178;51.120;6.192;2023-05-02T02:53:24;85.47;;;39.07;;
18102;SDS011;9178;51.120;6.192;2023-05-02T02:56:01;94.87;;;39.33;;
18102;SDS011;9178;51.120;6.192;2023-05-02T02:58:35;65.17;;;34.70;;
18102;SDS011;9178;51.120;6.192;2023-05-02T03:01:10;86.70;;;37.80;;
18102;SDS011;9178;51.120;6.192;2023-05-02T03:03:41;58.63;;;31.90;;
18102;SDS011;9178;51.120;6.192;2023-05-02T03:06:09;57.80;;;32.97;;
18102;SDS011;9178;51.120;6.192;2023-05-02T03:08:41;53.57;;;32.17;;
18102;SDS011;9178;51.120;6.192;2023-05-02T03:11:11;50.33;;;28.93;;
18102;SDS011;9178;51.120;6.192;2023-05-02T03:13:37;53.97;;;30.57;;
18102;SDS011;9178;51.120;6.192;2023-05-02T03:18:54;42.30;;;23.97;;
18102;SDS011;9178;51.120;6.192;2023-05-02T03:21:21;33.23;;;20.20;;
18102;SDS011;9178;51.120;6.192;2023-05-02T03:23:49;32.70;;;19.47;;
18102;SDS011;9178;51.120;6.192;2023-05-02T03:26:16;38.93;;;21.93;;
18102;SDS011;9178;51.120;6.192;2023-05-02T03:28:43;30.90;;;18.23;;
18102;SDS011;9178;51.120;6.192;2023-05-02T03:31:11;29.67;;;16.70;;
18102;SDS011;9178;51.120;6.192;2023-05-02T03:33:38;25.93;;;15.23;;
18102;SDS011;9178;51.120;6.192;2023-05-02T03:36:05;27.10;;;15.37;;
18102;SDS011;9178;51.120;6.192;2023-05-02T03:38:32;31.00;;;17.20;;
18102;SDS011;9178;51.120;6.192;2023-05-02T03:41:00;37.67;;;19.50;;
18102;SDS011;9178;51.120;6.192;2023-05-02T03:43:28;30.93;;;17.93;;
18102;SDS011;9178;51.120;6.192;2023-05-02T03:45:56;25.47;;;15.20;;
18102;SDS011;9178;51.120;6.192;2023-05-02T03:48:23;31.00;;;17.30;;
18102;SDS011;9178;51.120;6.192;2023-05-02T03:50:51;31.27;;;15.53;;
18102;SDS011;9178;51.120;6.192;2023-05-02T03:53:18;24.30;;;15.37;;
18102;SDS011;9178;51.120;6.192;2023-05-02T03:55:45;27.70;;;15.90;;
18102;SDS011;9178;51.120;6.192;2023-05-02T03:58:13;23.73;;;14.50;;
18102;SDS011;9178;51.120;6.192;2023-05-02T04:00:40;20.37;;;12.97;;
18102;SDS011;9178;51.120;6.192;2023-05-02T04:03:07;20.80;;;13.13;;
18102;SDS011;9178;51.120;6.192;2023-05-02T04:05:34;20.23;;;12.60;;
18102;SDS011;9178;51.120;6.192;2023-05-02T04:08:01;25.23;;;13.83;;
18102;SDS011;9178;51.120;6.192;2023-05-02T04:10:27;25.80;;;13.50;;
18102;SDS011;9178;51.120;6.192;2023-05-02T04:12:54;22.67;;;13.40;;
18102;SDS011;9178;51.120;6.192;2023-05-02T04:15:22;22.67;;;12.13;;
18102;SDS011;9178;51.120;6.192;2023-05-02T04:17:49;23.87;;;12.37;;
18102;SDS011;9178;51.120;6.192;2023-05-02T04:20:16;22.63;;;12.43;;
18102;SDS011;9178;51.120;6.192;2023-05-02T04:22:43;21.97;;;11.73;;
18102;SDS011;9178;51.120;6.192;2023-05-02T04:25:11;22.27;;;12.23;;
18102;SDS011;9178;51.120;6.192;2023-05-02T04:27:39;18.70;;;11.03;;
18102;SDS011;9178;51.120;6.192;2023-05-02T04:30:06;22.60;;;11.63;;
18102;SDS011;9178;51.120;6.192;2023-05-02T04:32:35;20.50;;;12.27;;
18102;SDS011;9178;51.120;6.192;2023-05-02T04:35:02;21.10;;;12.13;;
18102;SDS011;9178;51.120;6.192;2023-05-02T04:37:30;21.27;;;11.37;;
18102;SDS011;9178;51.120;6.192;2023-05-02T04:39:56;24.53;;;12.77;;
18102;SDS011;9178;51.120;6.192;2023-05-02T04:42:23;20.93;;;12.47;;
18102;SDS011;9178;51.120;6.192;2023-05-02T04:44:50;20.40;;;11.63;;
18102;SDS011;9178;51.120;6.192;2023-05-02T04:47:17;21.60;;;12.00;;
18102;SDS011;9178;51.120;6.192;2023-05-02T04:49:45;22.83;;;12.63;;
18102;SDS011;9178;51.120;6.192;2023-05-02T04:52:12;20.20;;;11.33;;
18102;SDS011;9178;51.120;6.192;2023-05-02T04:54:38;18.93;;;11.80;;
18102;SDS011;9178;51.120;6.192;2023-05-02T04:57:05;21.07;;;12.17;;
18102;SDS011;9178;51.120;6.192;2023-05-02T04:59:34;20.53;;;12.17;;
18102;SDS011;9178;51.120;6.192;2023-05-02T05:02:02;22.77;;;12.37;;
18102;SDS011;9178;51.120;6.192;2023-05-02T05:04:29;20.27;;;11.97;;
18102;SDS011;9178;51.120;6.192;2023-05-02T05:06:57;20.87;;;12.03;;
18102;SDS011;9178;51.120;6.192;2023-05-02T05:09:24;19.67;;;12.00;;
18102;SDS011;9178;51.120;6.192;2023-05-02T05:11:50;21.33;;;12.63;;
18102;SDS011;9178;51.120;6.192;2023-05-02T05:14:17;21.97;;;12.37;;
18102;SDS011;9178;51.120;6.192;2023-05-02T05:16:44;19.53;;;12.50;;
18102;SDS011;9178;51.120;6.192;2023-05-02T05:19:10;20.07;;;12.17;;
18102;SDS011;9178;51.120;6.192;2023-05-02T05:21:37;21.93;;;12.43;;
18102;SDS011;9178;51.120;6.192;2023-05-02T05:24:06;24.43;;;12.90;;
18102;SDS011;9178;51.120;6.192;2023-05-02T05:26:33;20.80;;;12.23;;
18102;SDS011;9178;51.120;6.192;2023-05-02T05:28:59;20.80;;;11.73;;
18102;SDS011;9178;51.120;6.192;2023-05-02T05:31:26;23.40;;;11.70;;
18102;SDS011;9178;51.120;6.192;2023-05-02T05:33:53;21.50;;;12.23;;
18102;SDS011;9178;51.120;6.192;2023-05-02T05:36:20;21.90;;;12.37;;
18102;SDS011;9178;51.120;6.192;2023-05-02T05:38:47;19.23;;;12.83;;
18102;SDS011;9178;51.120;6.192;2023-05-02T05:41:15;23.13;;;13.23;;
18102;SDS011;9178;51.120;6.192;2023-05-02T05:43:42;22.20;;;12.27;;
18102;SDS011;9178;51.120;6.192;2023-05-02T05:46:09;22.27;;;12.57;;
18102;SDS011;9178;51.120;6.192;2023-05-02T05:48:35;25.83;;;13.33;;
18102;SDS011;9178;51.120;6.192;2023-05-02T05:51:02;19.87;;;12.57;;
18102;SDS011;9178;51.120;6.192;2023-05-02T05:53:30;23.10;;;12.30;;
18102;SDS011;9178;51.120;6.192;2023-05-02T05:55:57;18.63;;;12.10;;
18102;SDS011;9178;51.120;6.192;2023-05-02T05:58:25;20.30;;;12.20;;
18102;SDS011;9178;51.120;6.192;2023-05-02T06:00:51;17.10;;;11.93;;
18102;SDS011;9178;51.120;6.192;2023-05-02T06:03:18;18.87;;;11.60;;
18102;SDS011;9178;51.120;6.192;2023-05-02T06:05:45;21.57;;;11.83;;
18102;SDS011;9178;51.120;6.192;2023-05-02T06:08:12;17.40;;;10.77;;
18102;SDS011;9178;51.120;6.192;2023-05-02T06:10:39;18.50;;;11.33;;
18102;SDS011;9178;51.120;6.192;2023-05-02T06:13:06;15.67;;;10.30;;
18102;SDS011;9178;51.120;6.192;2023-05-02T06:15:34;12.27;;;8.50;;
18102;SDS011;9178;51.120;6.192;2023-05-02T06:18:01;11.47;;;7.93;;
18102;SDS011;9178;51.120;6.192;2023-05-02T06:20:28;11.73;;;6.80;;
18102;SDS011;9178;51.120;6.192;2023-05-02T06:22:54;11.70;;;5.47;;
18102;SDS011;9178;51.120;6.192;2023-05-02T06:25:21;10.97;;;5.20;;
18102;SDS011;9178;51.120;6.192;2023-05-02T06:27:48;4.43;;;4.00;;
18102;SDS011;9178;51.120;6.192;2023-05-02T06:30:15;7.47;;;3.90;;
18102;SDS011;9178;51.120;6.192;2023-05-02T06:32:43;9.63;;;3.93;;
18102;SDS011;9178;51.120;6.192;2023-05-02T06:35:10;7.50;;;3.80;;
18102;SDS011;9178;51.120;6.192;2023-05-02T06:37:36;9.13;;;4.17;;
18102;SDS011;9178;51.120;6.192;2023-05-02T06:40:03;5.80;;;3.50;;
18102;SDS011;9178;51.120;6.192;2023-05-02T06:42:31;5.23;;;2.70;;
18102;SDS011;9178;51.120;6.192;2023-05-02T06:44:58;6.00;;;3.27;;
18102;SDS011;9178;51.120;6.192;2023-05-02T06:47:24;6.30;;;3.10;;
18102;SDS011;9178;51.120;6.192;2023-05-02T06:49:53;5.63;;;2.97;;
18102;SDS011;9178;51.120;6.192;2023-05-02T06:52:21;7.87;;;2.30;;
18102;SDS011;9178;51.120;6.192;2023-05-02T06:54:48;6.70;;;2.33;;
18102;SDS011;9178;51.120;6.192;2023-05-02T06:57:15;6.00;;;2.93;;
18102;SDS011;9178;51.120;6.192;2023-05-02T06:59:41;6.17;;;2.37;;
18102;SDS011;9178;51.120;6.192;2023-05-02T07:02:08;7.63;;;2.40;;
18102;SDS011;9178;51.120;6.192;2023-05-02T07:04:35;7.23;;;2.40;;
18102;SDS011;9178;51.120;6.192;2023-05-02T07:07:03;3.67;;;2.33;;
18102;SDS011;9178;51.120;6.192;2023-05-02T07:09:30;6.27;;;2.90;;
18102;SDS011;9178;51.120;6.192;2023-05-02T07:11:56;5.27;;;2.47;;
18102;SDS011;9178;51.120;6.192;2023-05-02T07:14:23;6.27;;;2.20;;
18102;SDS011;9178;51.120;6.192;2023-05-02T07:16:50;7.07;;;1.90;;
18102;SDS011;9178;51.120;6.192;2023-05-02T07:19:17;4.67;;;2.20;;
18102;SDS011;9178;51.120;6.192;2023-05-02T07:21:43;4.80;;;1.90;;
18102;SDS011;9178;51.120;6.192;2023-05-02T07:24:12;7.43;;;1.80;;
18102;SDS011;9178;51.120;6.192;2023-05-02T07:26:38;3.77;;;2.10;;
18102;SDS011;9178;51.120;6.192;2023-05-02T07:29:05;2.67;;;1.73;;
18102;SDS011;9178;51.120;6.192;2023-05-02T07:31:33;5.97;;;2.23;;
18102;SDS011;9178;51.120;6.192;2023-05-02T07:34:00;5.33;;;2.17;;
18102;SDS011;9178;51.120;6.192;2023-05-02T07:36:27;4.27;;;2.10;;
18102;SDS011;9178;51.120;6.192;2023-05-02T07:38:53;6.40;;;1.73;;
18102;SDS011;9178;51.120;6.192;2023-05-02T07:41:21;3.17;;;1.73;;
18102;SDS011;9178;51.120;6.192;2023-05-02T07:43:48;6.37;;;2.10;;
18102;SDS011;9178;51.120;6.192;2023-05-02T07:46:15;5.27;;;1.60;;
18102;SDS011;9178;51.120;6.192;2023-05-02T07:48:42;3.70;;;1.70;;
18102;SDS011;9178;51.120;6.192;2023-05-02T07:51:09;4.77;;;1.73;;
18102;SDS011;9178;51.120;6.192;2023-05-02T07:53:36;2.40;;;1.13;;
18102;SDS011;9178;51.120;6.192;2023-05-02T07:56:03;2.83;;;1.40;;
18102;SDS011;9178;51.120;6.192;2023-05-02T07:58:33;5.13;;;1.37;;
18102;SDS011;9178;51.120;6.192;2023-05-02T08:01:00;3.27;;;1.63;;
18102;SDS011;9178;51.120;6.192;2023-05-02T08:03:27;2.57;;;1.87;;
18102;SDS011;9178;51.120;6.192;2023-05-02T08:05:54;4.47;;;1.50;;
18102;SDS011;9178;51.120;6.192;2023-05-02T08:08:21;3.20;;;1.37;;
18102;SDS011;9178;51.120;6.192;2023-05-02T08:10:48;3.40;;;1.43;;
18102;SDS011;9178;51.120;6.192;2023-05-02T08:13:15;6.20;;;2.13;;
18102;SDS011;9178;51.120;6.192;2023-05-02T08:15:43;5.13;;;1.90;;
18102;SDS011;9178;51.120;6.192;2023-05-02T08:18:10;4.23;;;1.60;;
18102;SDS011;9178;51.120;6.192;2023-05-02T08:20:37;3.00;;;1.60;;
18102;SDS011;9178;51.120;6.192;2023-05-02T08:23:04;4.20;;;1.53;;
18102;SDS011;9178;51.120;6.192;2023-05-02T08:25:31;4.47;;;1.57;;
18102;SDS011;9178;51.120;6.192;2023-05-02T08:27:58;3.10;;;1.53;;
18102;SDS011;9178;51.120;6.192;2023-05-02T08:30:25;3.53;;;1.23;;
18102;SDS011;9178;51.120;6.192;2023-05-02T08:32:53;3.10;;;1.17;;
18102;SDS011;9178;51.120;6.192;2023-05-02T08:35:20;4.30;;;1.33;;
18102;SDS011;9178;51.120;6.192;2023-05-02T08:37:46;6.27;;;1.40;;
18102;SDS011;9178;51.120;6.192;2023-05-02T08:40:13;4.67;;;1.40;;
18102;SDS011;9178;51.120;6.192;2023-05-02T08:42:42;3.43;;;1.40;;
18102;SDS011;9178;51.120;6.192;2023-05-02T08:45:10;3.03;;;1.40;;
18102;SDS011;9178;51.120;6.192;2023-05-02T08:47:38;2.77;;;1.27;;
18102;SDS011;9178;51.120;6.192;2023-05-02T08:50:08;3.13;;;1.40;;
18102;SDS011;9178;51.120;6.192;2023-05-02T08:52:36;5.50;;;1.50;;
18102;SDS011;9178;51.120;6.192;2023-05-02T08:55:03;4.10;;;1.57;;
18102;SDS011;9178;51.120;6.192;2023-05-02T08:57:31;3.80;;;1.67;;
18102;SDS011;9178;51.120;6.192;2023-05-02T08:59:58;6.43;;;1.87;;
18102;SDS011;9178;51.120;6.192;2023-05-02T09:02:32;3.70;;;1.70;;
18102;SDS011;9178;51.120;6.192;2023-05-02T09:05:10;5.37;;;1.83;;
18102;SDS011;9178;51.120;6.192;2023-05-02T09:07:44;6.20;;;1.90;;
18102;SDS011;9178;51.120;6.192;2023-05-02T09:10:12;4.47;;;2.23;;
18102;SDS011;9178;51.120;6.192;2023-05-02T09:12:39;5.10;;;1.73;;
18102;SDS011;9178;51.120;6.192;2023-05-02T09:15:07;9.53;;;2.10;;
18102;SDS011;9178;51.120;6.192;2023-05-02T09:17:38;4.77;;;2.17;;
18102;SDS011;9178;51.120;6.192;2023-05-02T09:20:06;3.63;;;1.60;;
18102;SDS011;9178;51.120;6.192;2023-05-02T09:22:36;3.40;;;1.70;;
18102;SDS011;9178;51.120;6.192;2023-05-02T09:25:04;4.03;;;1.70;;
18102;SDS011;9178;51.120;6.192;2023-05-02T09:30:18;4.57;;;2.37;;
18102;SDS011;9178;51.120;6.192;2023-05-02T09:32:47;6.13;;;2.43;;
18102;SDS011;9178;51.120;6.192;2023-05-02T09:35:16;6.67;;;2.00;;
18102;SDS011;9178;51.120;6.192;2023-05-02T09:37:49;8.33;;;2.20;;
18102;SDS011;9178;51.120;6.192;2023-05-02T09:40:17;6.97;;;2.33;;
18102;SDS011;9178;51.120;6.192;2023-05-02T09:42:44;5.00;;;1.60;;
18102;SDS011;9178;51.120;6.192;2023-05-02T09:45:20;5.13;;;1.90;;
18102;SDS011;9178;51.120;6.192;2023-05-02T09:47:48;4.90;;;1.67;;
18102;SDS011;9178;51.120;6.192;2023-05-02T09:50:30;3.90;;;1.60;;
18102;SDS011;9178;51.120;6.192;2023-05-02T09:53:03;6.03;;;1.77;;
18102;SDS011;9178;51.120;6.192;2023-05-02T09:55:31;3.37;;;1.33;;
18102;SDS011;9178;51.120;6.192;2023-05-02T09:57:58;4.40;;;1.80;;
18102;SDS011;9178;51.120;6.192;2023-05-02T10:00:39;4.63;;;1.53;;
18102;SDS011;9178;51.120;6.192;2023-05-02T10:03:07;3.63;;;1.57;;
18102;SDS011;9178;51.120;6.192;2023-05-02T10:05:35;4.97;;;1.87;;
18102;SDS011;9178;51.120;6.192;2023-05-02T10:08:05;6.80;;;1.90;;
18102;SDS011;9178;51.120;6.192;2023-05-02T10:10:34;5.93;;;1.97;;
18102;SDS011;9178;51.120;6.192;2023-05-02T10:13:03;4.27;;;2.33;;
18102;SDS011;9178;51.120;6.192;2023-05-02T10:15:31;4.20;;;2.03;;
18102;SDS011;9178;51.120;6.192;2023-05-02T10:17:59;9.23;;;2.10;;
18102;SDS011;9178;51.120;6.192;2023-05-02T10:20:31;4.80;;;1.90;;
18102;SDS011;9178;51.120;6.192;2023-05-02T10:23:01;5.17;;;2.00;;
18102;SDS011;9178;51.120;6.192;2023-05-02T10:25:29;4.90;;;1.77;;
18102;SDS011;9178;51.120;6.192;2023-05-02T10:27:58;6.30;;;2.03;;
18102;SDS011;9178;51.120;6.192;2023-05-02T10:30:25;6.83;;;2.00;;
18102;SDS011;9178;51.120;6.192;2023-05-02T10:32:52;4.50;;;2.10;;
18102;SDS011;9178;51.120;6.192;2023-05-02T10:35:19;5.60;;;2.03;;
18102;SDS011;9178;51.120;6.192;2023-05-02T10:37:48;6.83;;;1.97;;
18102;SDS011;9178;51.120;6.192;2023-05-02T10:40:16;5.17;;;2.30;;
18102;SDS011;9178;51.120;6.192;2023-05-02T10:42:46;5.47;;;2.00;;
18102;SDS011;9178;51.120;6.192;2023-05-02T10:45:28;4.20;;;2.00;;
18102;SDS011;9178;51.120;6.192;2023-05-02T10:48:11;4.17;;;2.20;;
18102;SDS011;9178;51.120;6.192;2023-05-02T10:50:43;6.23;;;2.03;;
18102;SDS011;9178;51.120;6.192;2023-05-02T10:53:21;2.80;;;1.90;;
18102;SDS011;9178;51.120;6.192;2023-05-02T10:58:46;4.20;;;1.80;;
18102;SDS011;9178;51.120;6.192;2023-05-02T11:01:33;3.40;;;2.13;;
18102;SDS011;9178;51.120;6.192;2023-05-02T11:04:07;4.87;;;2.23;;
18102;SDS011;9178;51.120;6.192;2023-05-02T11:06:35;8.57;;;2.00;;
18102;SDS011;9178;51.120;6.192;2023-05-02T11:09:29;6.43;;;1.97;;
18102;SDS011;9178;51.120;6.192;2023-05-02T11:11:59;4.20;;;1.97;;
18102;SDS011;9178;51.120;6.192;2023-05-02T11:14:42;3.93;;;1.90;;
18102;SDS011;9178;51.120;6.192;2023-05-02T11:17:11;6.47;;;1.65;;
18102;SDS011;9178;51.120;6.192;2023-05-02T11:25:50;5.03;;;2.00;;
18102;SDS011;9178;51.120;6.192;2023-05-02T11:31:06;4.80;;;2.00;;
18102;SDS011;9178;51.120;6.192;2023-05-02T11:33:34;4.88;;;2.20;;
18102;SDS011;9178;51.120;6.192;2023-05-02T11:36:02;6.93;;;2.20;;
18102;SDS011;9178;51.120;6.192;2023-05-02T11:38:34;5.90;;;1.63;;
18102;SDS011;9178;51.120;6.192;2023-05-02T11:41:02;7.47;;;2.10;;
18102;SDS011;9178;51.120;6.192;2023-05-02T11:43:29;4.05;;;2.10;;
18102;SDS011;9178;51.120;6.192;2023-05-02T11:45:59;5.68;;;2.20;;
18102;SDS011;9178;51.120;6.192;2023-05-02T11:48:28;4.13;;;1.92;;
18102;SDS011;9178;51.120;6.192;2023-05-02T11:50:56;3.47;;;1.90;;
18102;SDS011;9178;51.120;6.192;2023-05-02T11:53:26;3.67;;;1.90;;
18102;SDS011;9178;51.120;6.192;2023-05-02T11:55:54;4.45;;;1.75;;
18102;SDS011;9178;51.120;6.192;2023-05-02T11:58:22;4.60;;;1.55;;
18102;SDS011;9178;51.120;6.192;2023-05-02T12:00:50;4.85;;;2.40;;
18102;SDS011;9178;51.120;6.192;2023-05-02T12:03:21;6.20;;;2.03;;
18102;SDS011;9178;51.120;6.192;2023-05-02T12:05:50;6.45;;;2.17;;
18102;SDS011;9178;51.120;6.192;2023-05-02T12:08:21;4.72;;;1.90;;
18102;SDS011;9178;51.120;6.192;2023-05-02T12:10:49;3.80;;;2.00;;
18102;SDS011;9178;51.120;6.192;2023-05-02T12:13:17;5.90;;;1.88;;
18102;SDS011;9178;51.120;6.192;2023-05-02T12:15:45;5.97;;;1.98;;
18102;SDS011;9178;51.120;6.192;2023-05-02T12:18:13;3.90;;;1.95;;
18102;SDS011;9178;51.120;6.192;2023-05-02T12:20:40;3.80;;;1.90;;
18102;SDS011;9178;51.120;6.192;2023-05-02T12:23:09;5.03;;;1.90;;
18102;SDS011;9178;51.120;6.192;2023-05-02T12:25:37;3.72;;;1.88;;
18102;SDS011;9178;51.120;6.192;2023-05-02T12:28:04;3.05;;;1.73;;
18102;SDS011;9178;51.120;6.192;2023-05-02T12:30:32;5.35;;;2.10;;
18102;SDS011;9178;51.120;6.192;2023-05-02T12:33:02;4.03;;;1.92;;
18102;SDS011;9178;51.120;6.192;2023-05-02T12:35:30;4.32;;;2.03;;
18102;SDS011;9178;51.120;6.192;2023-05-02T12:38:08;3.47;;;1.58;;
18102;SDS011;9178;51.120;6.192;2023-05-02T12:40:45;3.78;;;1.85;;
18102;SDS011;9178;51.120;6.192;2023-05-02T12:43:16;4.32;;;1.77;;
18102;SDS011;9178;51.120;6.192;2023-05-02T12:45:44;2.90;;;1.85;;
18102;SDS011;9178;51.120;6.192;2023-05-02T12:48:19;4.18;;;1.75;;
18102;SDS011;9178;51.120;6.192;2023-05-02T12:50:47;4.25;;;1.70;;
18102;SDS011;9178;51.120;6.192;2023-05-02T12:53:16;3.42;;;1.65;;
18102;SDS011;9178;51.120;6.192;2023-05-02T12:55:43;4.80;;;2.28;;
18102;SDS011;9178;51.120;6.192;2023-05-02T12:58:11;3.97;;;2.20;;
18102;SDS011;9178;51.120;6.192;2023-05-02T13:00:39;3.05;;;1.90;;
18102;SDS011;9178;51.120;6.192;2023-05-02T13:03:07;4.53;;;1.83;;
18102;SDS011;9178;51.120;6.192;2023-05-02T13:05:35;6.00;;;2.15;;
18102;SDS011;9178;51.120;6.192;2023-05-02T13:08:01;3.78;;;1.95;;
18102;SDS011;9178;51.120;6.192;2023-05-02T13:10:31;6.53;;;2.17;;
18102;SDS011;9178;51.120;6.192;2023-05-02T13:12:58;5.32;;;1.92;;
18102;SDS011;9178;51.120;6.192;2023-05-02T13:15:25;3.63;;;1.90;;
18102;SDS011;9178;51.120;6.192;2023-05-02T13:17:52;3.22;;;1.48;;
18102;SDS011;9178;51.120;6.192;2023-05-02T13:20:19;6.43;;;1.83;;
18102;SDS011;9178;51.120;6.192;2023-05-02T13:22:46;4.38;;;2.00;;
18102;SDS011;9178;51.120;6.192;2023-05-02T13:25:13;4.50;;;1.80;;
18102;SDS011;9178;51.120;6.192;2023-05-02T13:27:41;4.07;;;2.13;;
18102;SDS011;9178;51.120;6.192;2023-05-02T13:30:08;5.43;;;1.90;;
18102;SDS011;9178;51.120;6.192;2023-05-02T13:32:36;4.85;;;1.83;;
18102;SDS011;9178;51.120;6.192;2023-05-02T13:35:04;5.35;;;1.95;;
18102;SDS011;9178;51.120;6.192;2023-05-02T13:37:32;4.53;;;2.03;;
18102;SDS011;9178;51.120;6.192;2023-05-02T13:39:59;5.25;;;1.83;;
18102;SDS011;9178;51.120;6.192;2023-05-02T13:42:26;3.78;;;1.75;;
18102;SDS011;9178;51.120;6.192;2023-05-02T13:44:54;5.22;;;1.92;;
18102;SDS011;9178;51.120;6.192;2023-05-02T13:47:20;2.72;;;1.67;;
18102;SDS011;9178;51.120;6.192;2023-05-02T13:49:48;5.63;;;2.10;;
18102;SDS011;9178;51.120;6.192;2023-05-02T13:52:15;4.05;;;1.50;;
18102;SDS011;9178;51.120;6.192;2023-05-02T13:54:41;4.93;;;2.05;;
18102;SDS011;9178;51.120;6.192;2023-05-02T13:57:08;5.22;;;1.50;;
18102;SDS011;9178;51.120;6.192;2023-05-02T13:59:36;3.28;;;2.08;;
18102;SDS011;9178;51.120;6.192;2023-05-02T14:02:04;2.97;;;1.75;;
18102;SDS011;9178;51.120;6.192;2023-05-02T14:04:30;2.10;;;1.77;;
18102;SDS011;9178;51.120;6.192;2023-05-02T14:06:57;5.03;;;2.80;;
18102;SDS011;9178;51.120;6.192;2023-05-02T14:09:24;4.28;;;2.17;;
18102;SDS011;9178;51.120;6.192;2023-05-02T14:11:51;4.75;;;1.80;;
18102;SDS011;9178;51.120;6.192;2023-05-02T14:14:17;3.38;;;1.77;;
18102;SDS011;9178;51.120;6.192;2023-05-02T14:16:44;3.97;;;2.03;;
18102;SDS011;9178;51.120;6.192;2023-05-02T14:19:12;3.17;;;1.73;;
18102;SDS011;9178;51.120;6.192;2023-05-02T14:21:39;5.32;;;2.00;;
18102;SDS011;9178;51.120;6.192;2023-05-02T14:24:06;3.05;;;1.95;;
18102;SDS011;9178;51.120;6.192;2023-05-02T14:26:33;3.05;;;1.75;;
18102;SDS011;9178;51.120;6.192;2023-05-02T14:29:00;5.28;;;2.15;;
18102;SDS011;9178;51.120;6.192;2023-05-02T14:31:26;5.05;;;1.90;;
18102;SDS011;9178;51.120;6.192;2023-05-02T14:33:53;4.05;;;1.98;;
18102;SDS011;9178;51.120;6.192;2023-05-02T14:36:21;4.55;;;1.92;;
18102;SDS011;9178;51.120;6.192;2023-05-02T14:38:48;4.32;;;2.05;;
18102;SDS011;9178;51.120;6.192;2023-05-02T14:41:15;2.20;;;1.73;;
18102;SDS011;9178;51.120;6.192;2023-05-02T14:43:42;2.40;;;1.65;;
18102;SDS011;9178;51.120;6.192;2023-05-02T14:46:09;2.58;;;1.63;;
18102;SDS011;9178;51.120;6.192;2023-05-02T14:48:35;2.67;;;1.95;;
18102;SDS011;9178;51.120;6.192;2023-05-02T14:51:02;3.38;;;1.80;;
18102;SDS011;9178;51.120;6.192;2023-05-02T14:53:31;3.55;;;2.00;;
18102;SDS011;9178;51.120;6.192;2023-05-02T14:55:57;3.50;;;1.98;;
18102;SDS011;9178;51.120;6.192;2023-05-02T14:58:24;2.97;;;1.70;;
18102;SDS011;9178;51.120;6.192;2023-05-02T15:00:51;2.95;;;1.83;;
18102;SDS011;9178;51.120;6.192;2023-05-02T15:03:18;3.63;;;1.85;;
18102;SDS011;9178;51.120;6.192;2023-05-02T15:05:44;4.07;;;2.38;;
18102;SDS011;9178;51.120;6.192;2023-05-02T15:08:11;3.08;;;1.50;;
18102;SDS011;9178;51.120;6.192;2023-05-02T15:10:39;3.83;;;2.38;;
18102;SDS011;9178;51.120;6.192;2023-05-02T15:13:06;3.50;;;1.77;;
18102;SDS011;9178;51.120;6.192;2023-05-02T15:15:33;3.67;;;2.00;;